Sadko — UBWF5 — position and weather

sailwx.info

Track history (hours):
 
Tides and Currents Weather Stations Pressure Air Temp Water Temp Dewpoint Dewpoint Depression Visibility Wind Speed Wind Dir Waves Ship Positions

Sadko

Last reported at 2018-Jan-24 10:59 UTC. Time now 2018-Jan-24 11:28 UTC.
Position N 59°41' E 028°25'.

Length 29 m.

MMSI: 273336330.

Date/timePositionNaut miles runAvg speedWind from/ knotsBaromVisibWave heightAir tempDewpointWater temp
2018-Jan-24 10:59N 59°41' E 028°25'0 0.0
2018-Jan-24 10:30N 59°41' E 028°25'0 0.0
2018-Jan-24 10:00N 59°41' E 028°25'0 0.0
2018-Jan-24 09:30N 59°41' E 028°25'0 0.0
2018-Jan-24 09:00N 59°41' E 028°25'0 0.0
2018-Jan-24 08:30N 59°41' E 028°25'0 0.0
2018-Jan-24 08:00N 59°41' E 028°25'0 0.0
2018-Jan-24 07:30N 59°41' E 028°25'0 0.0
2018-Jan-24 07:00N 59°41' E 028°25'0 0.0
2018-Jan-24 06:29N 59°41' E 028°25'0 0.0
2018-Jan-24 05:59N 59°41' E 028°25'0 0.0
2018-Jan-24 05:30N 59°41' E 028°25'0 0.0
2018-Jan-24 04:59N 59°41' E 028°25'0 0.0
2018-Jan-24 04:29N 59°41' E 028°25'0 0.0
2018-Jan-24 03:59N 59°41' E 028°25'0 0.0
2018-Jan-24 03:30N 59°41' E 028°25'0 0.0
2018-Jan-24 02:59N 59°41' E 028°25'0 0.0
2018-Jan-24 02:30N 59°41' E 028°25'0 0.0
2018-Jan-24 02:00N 59°41' E 028°25'2 3.4
2018-Jan-24 01:30N 59°42' E 028°25'0 0.6
2018-Jan-24 01:00N 59°42' E 028°26'1 2.4
2018-Jan-24 00:29N 59°41' E 028°25'3 6.4
2018-Jan-24 00:00N 59°44' E 028°24'1 1.1
2018-Jan-23 23:29N 59°44' E 028°23'3 6.8
2018-Jan-23 22:59N 59°41' E 028°25'0 0.0
2018-Jan-23 22:29N 59°41' E 028°25'0 0.0
2018-Jan-23 22:00N 59°41' E 028°25'0 0.0
2018-Jan-23 21:30N 59°41' E 028°25'0 0.0
2018-Jan-23 20:59N 59°41' E 028°25'0 0.0
2018-Jan-23 20:30N 59°41' E 028°25'0 0.0
2018-Jan-23 20:00N 59°41' E 028°25'0 0.0
2018-Jan-23 19:30N 59°41' E 028°25'0 0.0
2018-Jan-23 19:00N 59°41' E 028°25'0 0.0
2018-Jan-23 18:30N 59°41' E 028°25'0 0.0
2018-Jan-23 18:00N 59°41' E 028°25'0 0.0
2018-Jan-23 17:30N 59°41' E 028°25'0 0.0
2018-Jan-23 17:00N 59°41' E 028°25'0 0.0
2018-Jan-23 16:30N 59°41' E 028°25'0 0.0
2018-Jan-23 16:00N 59°41' E 028°25'0 0.0
2018-Jan-23 15:30N 59°41' E 028°25'0 0.0
2018-Jan-23 15:00N 59°41' E 028°25'0 0.0
2018-Jan-23 14:30N 59°41' E 028°25'0 0.0
2018-Jan-23 13:59N 59°41' E 028°25'0 0.0
2018-Jan-23 13:30N 59°41' E 028°25'0 0.0
2018-Jan-23 13:00N 59°41' E 028°25'0 0.0
2018-Jan-23 12:30N 59°41' E 028°25'0 0.0
2018-Jan-23 12:00N 59°41' E 028°25'0 0.0
2018-Jan-23 11:30N 59°41' E 028°25'0 0.0
2018-Jan-23 11:00N 59°41' E 028°25'0 0.0
2018-Jan-23 10:30N 59°41' E 028°25'0 0.0
2018-Jan-23 10:00N 59°41' E 028°25'0 0.0
2018-Jan-23 09:30N 59°41' E 028°25'0 0.0
2018-Jan-23 09:00N 59°41' E 028°25'0 0.0
2018-Jan-23 08:30N 59°41' E 028°25'0 0.0
2018-Jan-23 08:00N 59°41' E 028°25'0 0.0
2018-Jan-23 07:29N 59°41' E 028°25'0 0.0
2018-Jan-23 07:00N 59°41' E 028°25'0 0.0
2018-Jan-23 06:30N 59°41' E 028°25'0 0.0
2018-Jan-23 06:00N 59°41' E 028°25'0 0.0
2018-Jan-23 05:29N 59°41' E 028°25'0 0.0
2018-Jan-23 05:00N 59°41' E 028°25'0 0.0
2018-Jan-23 04:30N 59°41' E 028°25'0 0.0
2018-Jan-23 04:00N 59°41' E 028°25'0 0.0
2018-Jan-23 03:30N 59°41' E 028°25'0 0.0
2018-Jan-23 02:59N 59°41' E 028°25'0 0.0
2018-Jan-23 02:30N 59°41' E 028°25'0 0.0
2018-Jan-23 02:00N 59°41' E 028°25'0 0.1
2018-Jan-23 01:30N 59°41' E 028°25'0 0.1
2018-Jan-23 00:59N 59°41' E 028°25'1 2.8
2018-Jan-23 00:29N 59°42' E 028°25'0 0.8
2018-Jan-23 00:00N 59°42' E 028°26'0 0.0
2018-Jan-22 23:30N 59°42' E 028°26'0 0.6
2018-Jan-22 23:00N 59°42' E 028°25'1 2.3
2018-Jan-22 22:29N 59°43' E 028°24'1 1.4
2018-Jan-22 22:00N 59°42' E 028°24'2 3.2
2018-Jan-22 21:29N 59°41' E 028°25'0 0.0
2018-Jan-22 21:01N 59°41' E 028°25'0 0.0
2018-Jan-22 20:30N 59°41' E 028°25'0 0.0
2018-Jan-22 20:00N 59°41' E 028°25'0 0.0
2018-Jan-22 19:29N 59°41' E 028°25'0 0.0
2018-Jan-22 11:58N 59°41' E 028°25'0 0.0
2018-Jan-22 11:30N 59°41' E 028°25'0 0.0
2018-Jan-22 10:59N 59°41' E 028°25'0 0.0
2018-Jan-22 10:29N 59°41' E 028°25'0 0.0
2018-Jan-22 10:00N 59°41' E 028°25'0 0.0
2018-Jan-22 09:29N 59°41' E 028°25'0 0.0
2018-Jan-22 09:00N 59°41' E 028°25'0 0.0
2018-Jan-22 08:30N 59°41' E 028°25'0 0.0
2018-Jan-22 08:00N 59°41' E 028°25'0 0.0
2018-Jan-22 07:30N 59°41' E 028°25'0 0.0
2018-Jan-22 07:00N 59°41' E 028°25'0 0.0
2018-Jan-22 06:28N 59°41' E 028°25'0 0.0
2018-Jan-22 06:00N 59°41' E 028°25'0 0.0
2018-Jan-22 05:30N 59°41' E 028°25'0 0.0
2018-Jan-22 05:00N 59°41' E 028°25'0 0.0
2018-Jan-22 04:30N 59°41' E 028°25'0 0.0
2018-Jan-22 04:00N 59°41' E 028°25'0 0.0
2018-Jan-22 03:29N 59°41' E 028°25'0 0.0
2018-Jan-22 03:00N 59°41' E 028°25'0 0.0
2018-Jan-22 02:29N 59°41' E 028°25'0 0.0
2018-Jan-22 02:00N 59°41' E 028°25'0 0.0
2018-Jan-22 01:30N 59°41' E 028°25'0 0.0
2018-Jan-22 01:00N 59°41' E 028°25'2 4.1
2018-Jan-22 00:28N 59°43' E 028°26'0 0.1
2018-Jan-21 23:59N 59°43' E 028°26'1 2.7
2018-Jan-21 23:29N 59°41' E 028°25'3 5.1
2018-Jan-21 22:59N 59°44' E 028°23'2 3.1
2018-Jan-21 22:30N 59°45' E 028°25'3 6.6
2018-Jan-21 21:59N 59°42' E 028°25'1 2.7
2018-Jan-21 21:30N 59°41' E 028°25'0 0.0
2018-Jan-21 21:00N 59°41' E 028°25'0 0.0
2018-Jan-21 20:30N 59°41' E 028°25'0 0.0
2018-Jan-21 20:00N 59°41' E 028°25'0 0.0
2018-Jan-21 19:29N 59°41' E 028°25'0 0.0
2018-Jan-21 19:00N 59°41' E 028°25'0 0.0
2018-Jan-21 18:30N 59°41' E 028°25'0 0.0
2018-Jan-21 18:00N 59°41' E 028°25'1 2.0
2018-Jan-21 17:30N 59°42' E 028°25'1 2.3
2018-Jan-21 17:00N 59°43' E 028°26'0 0.2
2018-Jan-21 16:30N 59°43' E 028°26'2 4.0
2018-Jan-21 15:59N 59°41' E 028°25'0 0.0
2018-Jan-21 15:30N 59°41' E 028°25'0 0.0
2018-Jan-21 15:00N 59°41' E 028°25'0 0.0
2018-Jan-21 14:30N 59°41' E 028°25'0 0.0
2018-Jan-21 14:00N 59°41' E 028°25'0 0.0
2018-Jan-21 13:30N 59°41' E 028°25'0 0.0
2018-Jan-21 13:00N 59°41' E 028°25'0 0.0
2018-Jan-21 12:29N 59°41' E 028°25'0 0.0
2018-Jan-21 12:00N 59°41' E 028°25'0 0.0
2018-Jan-21 11:30N 59°41' E 028°25'0 0.0
2018-Jan-21 11:00N 59°41' E 028°25'0 0.0
2018-Jan-21 10:30N 59°41' E 028°25'0 0.0
2018-Jan-21 09:59N 59°41' E 028°25'0 0.0
2018-Jan-21 09:29N 59°41' E 028°25'0 0.0
2018-Jan-21 09:00N 59°41' E 028°25'0 0.0
2018-Jan-21 08:30N 59°41' E 028°25'0 0.0
2018-Jan-21 08:00N 59°41' E 028°25'0 0.0
2018-Jan-21 07:31N 59°41' E 028°25'0 0.0
2018-Jan-21 06:59N 59°41' E 028°25'0 0.0
2018-Jan-21 06:30N 59°41' E 028°25'0 0.0
2018-Jan-21 06:01N 59°41' E 028°25'0 0.0
2018-Jan-21 05:30N 59°41' E 028°25'0 0.0
2018-Jan-21 05:00N 59°41' E 028°25'0 0.0
2018-Jan-21 04:30N 59°41' E 028°25'0 0.0
2018-Jan-21 04:00N 59°41' E 028°25'0 0.0
2018-Jan-21 03:29N 59°41' E 028°25'0 0.0
2018-Jan-21 03:00N 59°41' E 028°25'0 0.0
2018-Jan-21 02:30N 59°41' E 028°25'0 0.0
2018-Jan-21 02:00N 59°41' E 028°25'0 0.0
2018-Jan-21 01:29N 59°41' E 028°25'0 0.0
2018-Jan-21 01:00N 59°41' E 028°25'0 0.0
2018-Jan-21 00:30N 59°41' E 028°25'0 0.0
2018-Jan-21 00:00N 59°41' E 028°25'0 0.0
2018-Jan-20 23:30N 59°41' E 028°25'0 0.0
2018-Jan-20 22:59N 59°41' E 028°25'0 0.0
2018-Jan-20 22:30N 59°41' E 028°25'0 0.0
2018-Jan-20 22:00N 59°41' E 028°25'0 0.0
2018-Jan-20 21:29N 59°41' E 028°25'0 0.0
2018-Jan-20 21:00N 59°41' E 028°25'0 0.0
2018-Jan-20 20:30N 59°41' E 028°25'0 0.0
2018-Jan-20 20:01N 59°41' E 028°25'0 0.0
2018-Jan-20 19:29N 59°41' E 028°25'0 0.0
2018-Jan-20 19:00N 59°41' E 028°25'0 0.0
2018-Jan-20 18:30N 59°41' E 028°25'0 0.0
2018-Jan-20 18:00N 59°41' E 028°25'0 0.0
2018-Jan-20 17:29N 59°41' E 028°25'0 0.0
2018-Jan-20 16:59N 59°41' E 028°25'0 0.0
2018-Jan-20 16:30N 59°41' E 028°25'0 0.0
2018-Jan-20 16:01N 59°41' E 028°25'0 0.0
2018-Jan-20 15:30N 59°41' E 028°25'0 0.0
2018-Jan-20 15:01N 59°41' E 028°25'0 0.0
2018-Jan-20 14:30N 59°41' E 028°25'0 0.0
2018-Jan-20 14:00N 59°41' E 028°25'0 0.0
2018-Jan-20 13:31N 59°41' E 028°25'2 3.1
2018-Jan-20 13:00N 59°42' E 028°24'3 6.9
2018-Jan-20 12:30N 59°45' E 028°24'3 6.5
2018-Jan-20 12:00N 59°42' E 028°25'1 1.6
2018-Jan-20 11:30N 59°42' E 028°25'1 2.0
2018-Jan-20 11:00N 59°41' E 028°25'0 0.0
2018-Jan-20 10:30N 59°41' E 028°25'0 0.0
2018-Jan-20 10:01N 59°41' E 028°25'0 0.0
2018-Jan-20 09:30N 59°41' E 028°25'0 0.0
2018-Jan-20 08:59N 59°41' E 028°25'0 0.0
2018-Jan-20 08:30N 59°41' E 028°25'0 0.0
2018-Jan-20 08:00N 59°41' E 028°25'0 0.0
2018-Jan-20 07:29N 59°41' E 028°25'0 0.0
2018-Jan-20 07:00N 59°41' E 028°25'0 0.0
2018-Jan-20 06:30N 59°41' E 028°25'0 0.0
2018-Jan-20 06:00N 59°41' E 028°25'0 0.0
2018-Jan-20 05:30N 59°41' E 028°25'0 0.0
2018-Jan-20 05:00N 59°41' E 028°25'0 0.0
2018-Jan-20 04:30N 59°41' E 028°25'0 0.0
2018-Jan-20 04:00N 59°41' E 028°25'0 0.0
2018-Jan-20 03:29N 59°41' E 028°25'0 0.0
2018-Jan-20 02:59N 59°41' E 028°25'0 0.0
2018-Jan-20 02:30N 59°41' E 028°25'0 0.0
2018-Jan-20 02:00N 59°41' E 028°25'0 0.0
2018-Jan-20 01:30N 59°41' E 028°25'0 0.0
2018-Jan-20 00:59N 59°41' E 028°25'0 0.0
2018-Jan-20 00:30N 59°41' E 028°25'0 0.0
2018-Jan-20 00:00N 59°41' E 028°25'0 0.0
2018-Jan-19 23:31N 59°41' E 028°25'0 0.0
2018-Jan-19 23:00N 59°41' E 028°25'0 0.0
2018-Jan-19 22:29N 59°41' E 028°25'0 0.0
2018-Jan-19 21:59N 59°41' E 028°25'0 0.0
2018-Jan-19 21:30N 59°41' E 028°25'0 0.0
2018-Jan-19 20:59N 59°41' E 028°25'0 0.0
2018-Jan-19 20:29N 59°41' E 028°25'0 0.0
2018-Jan-19 20:00N 59°41' E 028°25'0 0.0
2018-Jan-19 19:30N 59°41' E 028°25'0 0.0
2018-Jan-19 19:00N 59°41' E 028°25'0 0.0
2018-Jan-19 18:30N 59°41' E 028°25'0 0.0
2018-Jan-19 18:00N 59°41' E 028°25'0 0.0
2018-Jan-19 17:30N 59°41' E 028°25'0 0.0
2018-Jan-19 17:00N 59°41' E 028°25'0 0.0
2018-Jan-19 16:30N 59°41' E 028°25'0 0.0
2018-Jan-19 16:00N 59°41' E 028°25'0 0.0
2018-Jan-19 15:30N 59°41' E 028°25'4 8.3
2018-Jan-19 14:59N 59°45' E 028°25'2 4.4
2018-Jan-19 14:29N 59°43' E 028°25'1 1.4
2018-Jan-19 13:59N 59°42' E 028°26'1 3.1
2018-Jan-19 13:29N 59°41' E 028°25'0 0.0
2018-Jan-19 13:00N 59°41' E 028°25'0 0.0
2018-Jan-19 12:29N 59°41' E 028°25'0 0.0
2018-Jan-19 11:59N 59°41' E 028°25'0 0.0
2018-Jan-19 11:30N 59°41' E 028°25'0 0.0
2018-Jan-19 11:01N 59°41' E 028°25'0 0.0
2018-Jan-19 10:31N 59°41' E 028°25'0 0.0
2018-Jan-19 09:59N 59°41' E 028°25'0 0.0
2018-Jan-19 09:30N 59°41' E 028°25'0 0.0
2018-Jan-19 09:00N 59°41' E 028°25'1 1.6
2018-Jan-19 08:30N 59°41' E 028°25'1 1.2
2018-Jan-19 07:59N 59°42' E 028°26'0 0.5
2018-Jan-19 07:29N 59°42' E 028°25'1 2.9
2018-Jan-19 07:00N 59°43' E 028°24'2 3.1
2018-Jan-19 06:30N 59°44' E 028°25'4 7.2
2018-Jan-19 06:00N 59°41' E 028°25'0 0.0
2018-Jan-19 05:30N 59°41' E 028°25'0 0.0
2018-Jan-19 05:00N 59°41' E 028°25'0 0.0
2018-Jan-19 04:30N 59°41' E 028°25'0 0.0
2018-Jan-19 04:00N 59°41' E 028°25'0 0.0
2018-Jan-19 03:30N 59°41' E 028°25'0 0.0
2018-Jan-19 03:00N 59°41' E 028°25'0 0.0
2018-Jan-19 02:29N 59°41' E 028°25'0 0.0
2018-Jan-19 02:00N 59°41' E 028°25'0 0.0
2018-Jan-19 01:30N 59°41' E 028°25'0 0.0
2018-Jan-19 01:00N 59°41' E 028°25'0 0.0
2018-Jan-19 00:29N 59°41' E 028°25'0 0.0
2018-Jan-19 00:00N 59°41' E 028°25'0 0.0
2018-Jan-18 23:30N 59°41' E 028°25'0 0.0
2018-Jan-18 23:00N 59°41' E 028°25'0 0.0
2018-Jan-18 22:30N 59°41' E 028°25'0 0.0
2018-Jan-18 21:59N 59°41' E 028°25'0 0.0
2018-Jan-18 21:30N 59°41' E 028°25'0 0.0
2018-Jan-18 20:59N 59°41' E 028°25'0 0.0
2018-Jan-18 20:30N 59°41' E 028°25'0 0.0
2018-Jan-18 19:59N 59°41' E 028°25'0 0.0
2018-Jan-18 19:30N 59°41' E 028°25'0 0.0
2018-Jan-18 19:00N 59°41' E 028°25'0 0.0
2018-Jan-18 18:30N 59°41' E 028°25'0 0.0
2018-Jan-18 18:00N 59°41' E 028°25'0 0.0
2018-Jan-18 17:30N 59°41' E 028°25'0 0.0
2018-Jan-18 17:00N 59°41' E 028°25'0 0.0
2018-Jan-18 16:30N 59°41' E 028°25'0 0.0
2018-Jan-18 16:01N 59°41' E 028°25'0 0.0
2018-Jan-18 15:29N 59°41' E 028°25'0 0.0
2018-Jan-18 14:59N 59°41' E 028°25'0 0.0
2018-Jan-18 14:30N 59°41' E 028°25'0 0.0
2018-Jan-18 14:00N 59°41' E 028°25'0 0.0
2018-Jan-18 13:30N 59°41' E 028°25'0 0.0
2018-Jan-18 13:00N 59°41' E 028°25'0 0.0
2018-Jan-18 12:30N 59°41' E 028°25'0 0.0
2018-Jan-18 12:00N 59°41' E 028°25'0 0.0
2018-Jan-18 11:29N 59°41' E 028°25'0 0.0
2018-Jan-18 11:00N 59°41' E 028°25'0 0.0
2018-Jan-18 10:30N 59°41' E 028°25'0 0.0
2018-Jan-18 10:00N 59°41' E 028°25'0 0.0
2018-Jan-18 09:30N 59°41' E 028°25'0 0.0
2018-Jan-18 09:00N 59°41' E 028°25'0 0.0
2018-Jan-18 08:30N 59°41' E 028°25'0 0.9
2018-Jan-18 08:00N 59°41' E 028°25'4 8.7
2018-Jan-18 07:30N 59°45' E 028°24'2 4.9
2018-Jan-18 07:00N 59°43' E 028°25'1 2.6
2018-Jan-18 06:30N 59°42' E 028°25'1 2.2
2018-Jan-18 06:00N 59°41' E 028°25'0 0.0
2018-Jan-18 05:29N 59°41' E 028°25'0 0.0
2018-Jan-18 05:00N 59°41' E 028°25'0 0.0
2018-Jan-18 04:31N 59°41' E 028°25'0 0.0
2018-Jan-18 04:00N 59°41' E 028°25'0 0.0
2018-Jan-18 03:30N 59°41' E 028°25'0 0.0
2018-Jan-18 02:59N 59°41' E 028°25'0 0.0
2018-Jan-18 02:30N 59°41' E 028°25'0 0.0
2018-Jan-18 02:00N 59°41' E 028°25'0 0.0
2018-Jan-18 01:29N 59°41' E 028°25'0 0.0
2018-Jan-18 01:00N 59°41' E 028°25'0 0.0
2018-Jan-17 23:59N 59°41' E 028°25'0 0.1
2018-Jan-17 23:57N 59°41' E 028°25'  
Track history (hours):
 
Tides and Currents Weather Stations Pressure Air Temp Water Temp Dewpoint Dewpoint Depression Visibility Wind Speed Wind Dir Waves Ship Positions

Sadko

Last reported at 2018-Jan-24 10:59 UTC. Time now 2018-Jan-24 11:28 UTC.
Position N 59°41' E 028°25'.

Length 29 m.

MMSI: 273336330.

Date/timePositionNaut miles runAvg speedWind from/ knotsBaromVisibWave heightAir tempDewpointWater temp
2018-Jan-24 10:59N 59°41' E 028°25'0 0.0
2018-Jan-24 10:30N 59°41' E 028°25'0 0.0
2018-Jan-24 10:00N 59°41' E 028°25'0 0.0
2018-Jan-24 09:30N 59°41' E 028°25'0 0.0
2018-Jan-24 09:00N 59°41' E 028°25'0 0.0
2018-Jan-24 08:30N 59°41' E 028°25'0 0.0
2018-Jan-24 08:00N 59°41' E 028°25'0 0.0
2018-Jan-24 07:30N 59°41' E 028°25'0 0.0
2018-Jan-24 07:00N 59°41' E 028°25'0 0.0
2018-Jan-24 06:29N 59°41' E 028°25'0 0.0
2018-Jan-24 05:59N 59°41' E 028°25'0 0.0
2018-Jan-24 05:30N 59°41' E 028°25'0 0.0
2018-Jan-24 04:59N 59°41' E 028°25'0 0.0
2018-Jan-24 04:29N 59°41' E 028°25'0 0.0
2018-Jan-24 03:59N 59°41' E 028°25'0 0.0
2018-Jan-24 03:30N 59°41' E 028°25'0 0.0
2018-Jan-24 02:59N 59°41' E 028°25'0 0.0
2018-Jan-24 02:30N 59°41' E 028°25'0 0.0
2018-Jan-24 02:00N 59°41' E 028°25'2 3.4
2018-Jan-24 01:30N 59°42' E 028°25'0 0.6
2018-Jan-24 01:00N 59°42' E 028°26'1 2.4
2018-Jan-24 00:29N 59°41' E 028°25'3 6.4
2018-Jan-24 00:00N 59°44' E 028°24'1 1.1
2018-Jan-23 23:29N 59°44' E 028°23'3 6.8
2018-Jan-23 22:59N 59°41' E 028°25'0 0.0
2018-Jan-23 22:29N 59°41' E 028°25'0 0.0
2018-Jan-23 22:00N 59°41' E 028°25'0 0.0
2018-Jan-23 21:30N 59°41' E 028°25'0 0.0
2018-Jan-23 20:59N 59°41' E 028°25'0 0.0
2018-Jan-23 20:30N 59°41' E 028°25'0 0.0
2018-Jan-23 20:00N 59°41' E 028°25'0 0.0
2018-Jan-23 19:30N 59°41' E 028°25'0 0.0
2018-Jan-23 19:00N 59°41' E 028°25'0 0.0
2018-Jan-23 18:30N 59°41' E 028°25'0 0.0
2018-Jan-23 18:00N 59°41' E 028°25'0 0.0
2018-Jan-23 17:30N 59°41' E 028°25'0 0.0
2018-Jan-23 17:00N 59°41' E 028°25'0 0.0
2018-Jan-23 16:30N 59°41' E 028°25'0 0.0
2018-Jan-23 16:00N 59°41' E 028°25'0 0.0
2018-Jan-23 15:30N 59°41' E 028°25'0 0.0
2018-Jan-23 15:00N 59°41' E 028°25'0 0.0
2018-Jan-23 14:30N 59°41' E 028°25'0 0.0
2018-Jan-23 13:59N 59°41' E 028°25'0 0.0
2018-Jan-23 13:30N 59°41' E 028°25'0 0.0
2018-Jan-23 13:00N 59°41' E 028°25'0 0.0
2018-Jan-23 12:30N 59°41' E 028°25'0 0.0
2018-Jan-23 12:00N 59°41' E 028°25'0 0.0
2018-Jan-23 11:30N 59°41' E 028°25'0 0.0
2018-Jan-23 11:00N 59°41' E 028°25'0 0.0
2018-Jan-23 10:30N 59°41' E 028°25'0 0.0
2018-Jan-23 10:00N 59°41' E 028°25'0 0.0
2018-Jan-23 09:30N 59°41' E 028°25'0 0.0
2018-Jan-23 09:00N 59°41' E 028°25'0 0.0
2018-Jan-23 08:30N 59°41' E 028°25'0 0.0
2018-Jan-23 08:00N 59°41' E 028°25'0 0.0
2018-Jan-23 07:29N 59°41' E 028°25'0 0.0
2018-Jan-23 07:00N 59°41' E 028°25'0 0.0
2018-Jan-23 06:30N 59°41' E 028°25'0 0.0
2018-Jan-23 06:00N 59°41' E 028°25'0 0.0
2018-Jan-23 05:29N 59°41' E 028°25'0 0.0
2018-Jan-23 05:00N 59°41' E 028°25'0 0.0
2018-Jan-23 04:30N 59°41' E 028°25'0 0.0
2018-Jan-23 04:00N 59°41' E 028°25'0 0.0
2018-Jan-23 03:30N 59°41' E 028°25'0 0.0
2018-Jan-23 02:59N 59°41' E 028°25'0 0.0
2018-Jan-23 02:30N 59°41' E 028°25'0 0.0
2018-Jan-23 02:00N 59°41' E 028°25'0 0.1
2018-Jan-23 01:30N 59°41' E 028°25'0 0.1
2018-Jan-23 00:59N 59°41' E 028°25'1 2.8
2018-Jan-23 00:29N 59°42' E 028°25'0 0.8
2018-Jan-23 00:00N 59°42' E 028°26'0 0.0
2018-Jan-22 23:30N 59°42' E 028°26'0 0.6
2018-Jan-22 23:00N 59°42' E 028°25'1 2.3
2018-Jan-22 22:29N 59°43' E 028°24'1 1.4
2018-Jan-22 22:00N 59°42' E 028°24'2 3.2
2018-Jan-22 21:29N 59°41' E 028°25'0 0.0
2018-Jan-22 21:01N 59°41' E 028°25'0 0.0
2018-Jan-22 20:30N 59°41' E 028°25'0 0.0
2018-Jan-22 20:00N 59°41' E 028°25'0 0.0
2018-Jan-22 19:29N 59°41' E 028°25'0 0.0
2018-Jan-22 11:58N 59°41' E 028°25'0 0.0
2018-Jan-22 11:30N 59°41' E 028°25'0 0.0
2018-Jan-22 10:59N 59°41' E 028°25'0 0.0
2018-Jan-22 10:29N 59°41' E 028°25'0 0.0
2018-Jan-22 10:00N 59°41' E 028°25'0 0.0
2018-Jan-22 09:29N 59°41' E 028°25'0 0.0
2018-Jan-22 09:00N 59°41' E 028°25'0 0.0
2018-Jan-22 08:30N 59°41' E 028°25'0 0.0
2018-Jan-22 08:00N 59°41' E 028°25'0 0.0
2018-Jan-22 07:30N 59°41' E 028°25'0 0.0
2018-Jan-22 07:00N 59°41' E 028°25'0 0.0
2018-Jan-22 06:28N 59°41' E 028°25'0 0.0
2018-Jan-22 06:00N 59°41' E 028°25'0 0.0
2018-Jan-22 05:30N 59°41' E 028°25'0 0.0
2018-Jan-22 05:00N 59°41' E 028°25'0 0.0
2018-Jan-22 04:30N 59°41' E 028°25'0 0.0
2018-Jan-22 04:00N 59°41' E 028°25'0 0.0
2018-Jan-22 03:29N 59°41' E 028°25'0 0.0
2018-Jan-22 03:00N 59°41' E 028°25'0 0.0
2018-Jan-22 02:29N 59°41' E 028°25'0 0.0
2018-Jan-22 02:00N 59°41' E 028°25'0 0.0
2018-Jan-22 01:30N 59°41' E 028°25'0 0.0
2018-Jan-22 01:00N 59°41' E 028°25'2 4.1
2018-Jan-22 00:28N 59°43' E 028°26'0 0.1
2018-Jan-21 23:59N 59°43' E 028°26'1 2.7
2018-Jan-21 23:29N 59°41' E 028°25'3 5.1
2018-Jan-21 22:59N 59°44' E 028°23'2 3.1
2018-Jan-21 22:30N 59°45' E 028°25'3 6.6
2018-Jan-21 21:59N 59°42' E 028°25'1 2.7
2018-Jan-21 21:30N 59°41' E 028°25'0 0.0
2018-Jan-21 21:00N 59°41' E 028°25'0 0.0
2018-Jan-21 20:30N 59°41' E 028°25'0 0.0
2018-Jan-21 20:00N 59°41' E 028°25'0 0.0
2018-Jan-21 19:29N 59°41' E 028°25'0 0.0
2018-Jan-21 19:00N 59°41' E 028°25'0 0.0
2018-Jan-21 18:30N 59°41' E 028°25'0 0.0
2018-Jan-21 18:00N 59°41' E 028°25'1 2.0
2018-Jan-21 17:30N 59°42' E 028°25'1 2.3
2018-Jan-21 17:00N 59°43' E 028°26'0 0.2
2018-Jan-21 16:30N 59°43' E 028°26'2 4.0
2018-Jan-21 15:59N 59°41' E 028°25'0 0.0
2018-Jan-21 15:30N 59°41' E 028°25'0 0.0
2018-Jan-21 15:00N 59°41' E 028°25'0 0.0
2018-Jan-21 14:30N 59°41' E 028°25'0 0.0
2018-Jan-21 14:00N 59°41' E 028°25'0 0.0
2018-Jan-21 13:30N 59°41' E 028°25'0 0.0
2018-Jan-21 13:00N 59°41' E 028°25'0 0.0
2018-Jan-21 12:29N 59°41' E 028°25'0 0.0
2018-Jan-21 12:00N 59°41' E 028°25'0 0.0
2018-Jan-21 11:30N 59°41' E 028°25'0 0.0
2018-Jan-21 11:00N 59°41' E 028°25'0 0.0
2018-Jan-21 10:30N 59°41' E 028°25'0 0.0
2018-Jan-21 09:59N 59°41' E 028°25'0 0.0
2018-Jan-21 09:29N 59°41' E 028°25'0 0.0
2018-Jan-21 09:00N 59°41' E 028°25'0 0.0
2018-Jan-21 08:30N 59°41' E 028°25'0 0.0
2018-Jan-21 08:00N 59°41' E 028°25'0 0.0
2018-Jan-21 07:31N 59°41' E 028°25'0 0.0
2018-Jan-21 06:59N 59°41' E 028°25'0 0.0
2018-Jan-21 06:30N 59°41' E 028°25'0 0.0
2018-Jan-21 06:01N 59°41' E 028°25'0 0.0
2018-Jan-21 05:30N 59°41' E 028°25'0 0.0
2018-Jan-21 05:00N 59°41' E 028°25'0 0.0
2018-Jan-21 04:30N 59°41' E 028°25'0 0.0
2018-Jan-21 04:00N 59°41' E 028°25'0 0.0
2018-Jan-21 03:29N 59°41' E 028°25'0 0.0
2018-Jan-21 03:00N 59°41' E 028°25'0 0.0
2018-Jan-21 02:30N 59°41' E 028°25'0 0.0
2018-Jan-21 02:00N 59°41' E 028°25'0 0.0
2018-Jan-21 01:29N 59°41' E 028°25'0 0.0
2018-Jan-21 01:00N 59°41' E 028°25'0 0.0
2018-Jan-21 00:30N 59°41' E 028°25'0 0.0
2018-Jan-21 00:00N 59°41' E 028°25'0 0.0
2018-Jan-20 23:30N 59°41' E 028°25'0 0.0
2018-Jan-20 22:59N 59°41' E 028°25'0 0.0
2018-Jan-20 22:30N 59°41' E 028°25'0 0.0
2018-Jan-20 22:00N 59°41' E 028°25'0 0.0
2018-Jan-20 21:29N 59°41' E 028°25'0 0.0
2018-Jan-20 21:00N 59°41' E 028°25'0 0.0
2018-Jan-20 20:30N 59°41' E 028°25'0 0.0
2018-Jan-20 20:01N 59°41' E 028°25'0 0.0
2018-Jan-20 19:29N 59°41' E 028°25'0 0.0
2018-Jan-20 19:00N 59°41' E 028°25'0 0.0
2018-Jan-20 18:30N 59°41' E 028°25'0 0.0
2018-Jan-20 18:00N 59°41' E 028°25'0 0.0
2018-Jan-20 17:29N 59°41' E 028°25'0 0.0
2018-Jan-20 16:59N 59°41' E 028°25'0 0.0
2018-Jan-20 16:30N 59°41' E 028°25'0 0.0
2018-Jan-20 16:01N 59°41' E 028°25'0 0.0
2018-Jan-20 15:30N 59°41' E 028°25'0 0.0
2018-Jan-20 15:01N 59°41' E 028°25'0 0.0
2018-Jan-20 14:30N 59°41' E 028°25'0 0.0
2018-Jan-20 14:00N 59°41' E 028°25'0 0.0
2018-Jan-20 13:31N 59°41' E 028°25'2 3.1
2018-Jan-20 13:00N 59°42' E 028°24'3 6.9
2018-Jan-20 12:30N 59°45' E 028°24'3 6.5
2018-Jan-20 12:00N 59°42' E 028°25'1 1.6
2018-Jan-20 11:30N 59°42' E 028°25'1 2.0
2018-Jan-20 11:00N 59°41' E 028°25'0 0.0
2018-Jan-20 10:30N 59°41' E 028°25'0 0.0
2018-Jan-20 10:01N 59°41' E 028°25'0 0.0
2018-Jan-20 09:30N 59°41' E 028°25'0 0.0
2018-Jan-20 08:59N 59°41' E 028°25'0 0.0
2018-Jan-20 08:30N 59°41' E 028°25'0 0.0
2018-Jan-20 08:00N 59°41' E 028°25'0 0.0
2018-Jan-20 07:29N 59°41' E 028°25'0 0.0
2018-Jan-20 07:00N 59°41' E 028°25'0 0.0
2018-Jan-20 06:30N 59°41' E 028°25'0 0.0
2018-Jan-20 06:00N 59°41' E 028°25'0 0.0
2018-Jan-20 05:30N 59°41' E 028°25'0 0.0
2018-Jan-20 05:00N 59°41' E 028°25'0 0.0
2018-Jan-20 04:30N 59°41' E 028°25'0 0.0
2018-Jan-20 04:00N 59°41' E 028°25'0 0.0
2018-Jan-20 03:29N 59°41' E 028°25'0 0.0
2018-Jan-20 02:59N 59°41' E 028°25'0 0.0
2018-Jan-20 02:30N 59°41' E 028°25'0 0.0
2018-Jan-20 02:00N 59°41' E 028°25'0 0.0
2018-Jan-20 01:30N 59°41' E 028°25'0 0.0
2018-Jan-20 00:59N 59°41' E 028°25'0 0.0
2018-Jan-20 00:30N 59°41' E 028°25'0 0.0
2018-Jan-20 00:00N 59°41' E 028°25'0 0.0
2018-Jan-19 23:31N 59°41' E 028°25'0 0.0
2018-Jan-19 23:00N 59°41' E 028°25'0 0.0
2018-Jan-19 22:29N 59°41' E 028°25'0 0.0
2018-Jan-19 21:59N 59°41' E 028°25'0 0.0
2018-Jan-19 21:30N 59°41' E 028°25'0 0.0
2018-Jan-19 20:59N 59°41' E 028°25'0 0.0
2018-Jan-19 20:29N 59°41' E 028°25'0 0.0
2018-Jan-19 20:00N 59°41' E 028°25'0 0.0
2018-Jan-19 19:30N 59°41' E 028°25'0 0.0
2018-Jan-19 19:00N 59°41' E 028°25'0 0.0
2018-Jan-19 18:30N 59°41' E 028°25'0 0.0
2018-Jan-19 18:00N 59°41' E 028°25'0 0.0
2018-Jan-19 17:30N 59°41' E 028°25'0 0.0
2018-Jan-19 17:00N 59°41' E 028°25'0 0.0
2018-Jan-19 16:30N 59°41' E 028°25'0 0.0
2018-Jan-19 16:00N 59°41' E 028°25'0 0.0
2018-Jan-19 15:30N 59°41' E 028°25'4 8.3
2018-Jan-19 14:59N 59°45' E 028°25'2 4.4
2018-Jan-19 14:29N 59°43' E 028°25'1 1.4
2018-Jan-19 13:59N 59°42' E 028°26'1 3.1
2018-Jan-19 13:29N 59°41' E 028°25'0 0.0
2018-Jan-19 13:00N 59°41' E 028°25'0 0.0
2018-Jan-19 12:29N 59°41' E 028°25'0 0.0
2018-Jan-19 11:59N 59°41' E 028°25'0 0.0
2018-Jan-19 11:30N 59°41' E 028°25'0 0.0
2018-Jan-19 11:01N 59°41' E 028°25'0 0.0
2018-Jan-19 10:31N 59°41' E 028°25'0 0.0
2018-Jan-19 09:59N 59°41' E 028°25'0 0.0
2018-Jan-19 09:30N 59°41' E 028°25'0 0.0
2018-Jan-19 09:00N 59°41' E 028°25'1 1.6
2018-Jan-19 08:30N 59°41' E 028°25'1 1.2
2018-Jan-19 07:59N 59°42' E 028°26'0 0.5
2018-Jan-19 07:29N 59°42' E 028°25'1 2.9
2018-Jan-19 07:00N 59°43' E 028°24'2 3.1
2018-Jan-19 06:30N 59°44' E 028°25'4 7.2
2018-Jan-19 06:00N 59°41' E 028°25'0 0.0
2018-Jan-19 05:30N 59°41' E 028°25'0 0.0
2018-Jan-19 05:00N 59°41' E 028°25'0 0.0
2018-Jan-19 04:30N 59°41' E 028°25'0 0.0
2018-Jan-19 04:00N 59°41' E 028°25'0 0.0
2018-Jan-19 03:30N 59°41' E 028°25'0 0.0
2018-Jan-19 03:00N 59°41' E 028°25'0 0.0
2018-Jan-19 02:29N 59°41' E 028°25'0 0.0
2018-Jan-19 02:00N 59°41' E 028°25'0 0.0
2018-Jan-19 01:30N 59°41' E 028°25'0 0.0
2018-Jan-19 01:00N 59°41' E 028°25'0 0.0
2018-Jan-19 00:29N 59°41' E 028°25'0 0.0
2018-Jan-19 00:00N 59°41' E 028°25'0 0.0
2018-Jan-18 23:30N 59°41' E 028°25'0 0.0
2018-Jan-18 23:00N 59°41' E 028°25'0 0.0
2018-Jan-18 22:30N 59°41' E 028°25'0 0.0
2018-Jan-18 21:59N 59°41' E 028°25'0 0.0
2018-Jan-18 21:30N 59°41' E 028°25'0 0.0
2018-Jan-18 20:59N 59°41' E 028°25'0 0.0
2018-Jan-18 20:30N 59°41' E 028°25'0 0.0
2018-Jan-18 19:59N 59°41' E 028°25'0 0.0
2018-Jan-18 19:30N 59°41' E 028°25'0 0.0
2018-Jan-18 19:00N 59°41' E 028°25'0 0.0
2018-Jan-18 18:30N 59°41' E 028°25'0 0.0
2018-Jan-18 18:00N 59°41' E 028°25'0 0.0
2018-Jan-18 17:30N 59°41' E 028°25'0 0.0
2018-Jan-18 17:00N 59°41' E 028°25'0 0.0
2018-Jan-18 16:30N 59°41' E 028°25'0 0.0
2018-Jan-18 16:01N 59°41' E 028°25'0 0.0
2018-Jan-18 15:29N 59°41' E 028°25'0 0.0
2018-Jan-18 14:59N 59°41' E 028°25'0 0.0
2018-Jan-18 14:30N 59°41' E 028°25'0 0.0
2018-Jan-18 14:00N 59°41' E 028°25'0 0.0
2018-Jan-18 13:30N 59°41' E 028°25'0 0.0
2018-Jan-18 13:00N 59°41' E 028°25'0 0.0
2018-Jan-18 12:30N 59°41' E 028°25'0 0.0
2018-Jan-18 12:00N 59°41' E 028°25'0 0.0
2018-Jan-18 11:29N 59°41' E 028°25'0 0.0
2018-Jan-18 11:00N 59°41' E 028°25'0 0.0
2018-Jan-18 10:30N 59°41' E 028°25'0 0.0
2018-Jan-18 10:00N 59°41' E 028°25'0 0.0
2018-Jan-18 09:30N 59°41' E 028°25'0 0.0
2018-Jan-18 09:00N 59°41' E 028°25'0 0.0
2018-Jan-18 08:30N 59°41' E 028°25'0 0.9
2018-Jan-18 08:00N 59°41' E 028°25'4 8.7
2018-Jan-18 07:30N 59°45' E 028°24'2 4.9
2018-Jan-18 07:00N 59°43' E 028°25'1 2.6
2018-Jan-18 06:30N 59°42' E 028°25'1 2.2
2018-Jan-18 06:00N 59°41' E 028°25'0 0.0
2018-Jan-18 05:29N 59°41' E 028°25'0 0.0
2018-Jan-18 05:00N 59°41' E 028°25'0 0.0
2018-Jan-18 04:31N 59°41' E 028°25'0 0.0
2018-Jan-18 04:00N 59°41' E 028°25'0 0.0
2018-Jan-18 03:30N 59°41' E 028°25'0 0.0
2018-Jan-18 02:59N 59°41' E 028°25'0 0.0
2018-Jan-18 02:30N 59°41' E 028°25'0 0.0
2018-Jan-18 02:00N 59°41' E 028°25'0 0.0
2018-Jan-18 01:29N 59°41' E 028°25'0 0.0
2018-Jan-18 01:00N 59°41' E 028°25'0 0.0
2018-Jan-17 23:59N 59°41' E 028°25'0 0.1
2018-Jan-17 23:57N 59°41' E 028°25'  

Dump ship's entire track history